createdAt,value
2023-02-24T00:01:16.087Z,3.40
2023-02-24T00:06:19.863Z,3.20
2023-02-24T00:11:22.544Z,3.30
2023-02-24T00:16:24.940Z,3.20
2023-02-24T00:21:29.477Z,3.10
2023-02-24T00:26:32.017Z,3.20
2023-02-24T00:31:34.689Z,3.60
2023-02-24T00:36:38.593Z,3.60
2023-02-24T00:41:43.471Z,3.30
2023-02-24T00:46:48.272Z,3.10
2023-02-24T00:51:54.494Z,3.00
2023-02-24T00:56:57.648Z,3.00
2023-02-24T01:02:00.209Z,2.90
2023-02-24T01:07:04.324Z,2.80
2023-02-24T01:12:26.483Z,2.90
2023-02-24T01:17:28.891Z,2.90
2023-02-24T01:22:34.318Z,3.10
2023-02-24T01:27:37.720Z,3.00
2023-02-24T01:32:40.060Z,3.00
2023-02-24T01:37:43.708Z,2.80
2023-02-24T01:42:47.946Z,2.90
2023-02-24T01:47:51.308Z,2.70
2023-02-24T01:52:59.131Z,2.60
2023-02-24T01:58:05.063Z,2.70
2023-02-24T02:03:12.516Z,2.70
2023-02-24T02:08:18.748Z,2.80
2023-02-24T02:13:21.680Z,2.90
2023-02-24T02:18:31.587Z,2.90
2023-02-24T02:24:04.502Z,2.80
2023-02-24T02:29:28.673Z,2.90
2023-02-24T02:34:42.130Z,2.70
2023-02-24T02:39:52.848Z,2.60
2023-02-24T02:45:05.416Z,2.40
2023-02-24T02:50:18.808Z,2.50
2023-02-24T02:55:26.143Z,2.60
2023-02-24T03:00:35.425Z,2.50
2023-02-24T03:05:47.334Z,2.50
2023-02-24T03:10:51.941Z,2.40
2023-02-24T03:15:55.236Z,2.40
2023-02-24T03:21:07.281Z,2.40
2023-02-24T03:26:19.058Z,2.50
2023-02-24T03:31:27.959Z,2.70
2023-02-24T03:36:31.544Z,2.80
2023-02-24T03:41:41.593Z,2.70
2023-02-24T03:46:44.484Z,2.60
2023-02-24T03:52:02.780Z,2.70
2023-02-24T03:57:19.142Z,2.90
2023-02-24T04:02:25.444Z,3.00
2023-02-24T04:07:41.636Z,3.20
2023-02-24T04:12:51.151Z,3.00
2023-02-24T04:17:57.698Z,3.10
2023-02-24T04:23:08.829Z,3.00
2023-02-24T04:28:11.872Z,3.00
2023-02-24T04:33:14.429Z,3.00
2023-02-24T04:38:18.249Z,3.00
2023-02-24T04:43:20.790Z,3.00
2023-02-24T04:48:22.991Z,3.10
2023-02-24T04:53:27.613Z,3.00
2023-02-24T04:58:29.918Z,2.90
2023-02-24T05:03:32.393Z,3.00
2023-02-24T05:08:36.506Z,3.10
2023-02-24T05:13:40.418Z,3.00
2023-02-24T05:18:45.032Z,3.00
2023-02-24T05:23:51.955Z,3.00
2023-02-24T05:28:56.744Z,2.90
2023-02-24T05:34:01.752Z,2.90
2023-02-24T05:39:07.771Z,3.00
2023-02-24T05:44:13.850Z,3.00
2023-02-24T05:49:17.752Z,3.00
2023-02-24T05:54:22.885Z,3.10
2023-02-24T05:59:25.527Z,2.90
2023-02-24T06:04:39.707Z,2.60
2023-02-24T06:09:46.413Z,2.60
2023-02-24T06:14:48.721Z,2.70
2023-02-24T06:19:53.261Z,2.70
2023-02-24T06:24:57.739Z,2.70
2023-02-24T06:30:01.053Z,2.70
2023-02-24T06:35:03.476Z,2.60
2023-02-24T06:40:16.054Z,2.70
2023-02-24T06:45:18.503Z,2.60
2023-02-24T06:50:22.196Z,2.90
2023-02-24T06:55:28.859Z,3.00
2023-02-24T07:00:39.394Z,3.10
2023-02-24T07:05:50.436Z,3.20
2023-02-24T07:11:00.046Z,3.30
2023-02-24T07:16:07.466Z,3.30
2023-02-24T07:21:11.920Z,3.60
2023-02-24T07:26:17.201Z,3.90
2023-02-24T07:31:23.252Z,4.10
2023-02-24T07:36:30.454Z,4.40
2023-02-24T07:41:34.392Z,4.70
2023-02-24T07:46:37.380Z,5.00
2023-02-24T07:51:39.874Z,5.30
2023-02-24T07:56:48.975Z,5.70
2023-02-24T08:01:51.296Z,5.60
2023-02-24T08:06:57.724Z,5.80
2023-02-24T08:12:01.381Z,6.40
2023-02-24T08:17:05.690Z,7.10
2023-02-24T08:22:20.499Z,7.70
2023-02-24T08:27:30.637Z,8.10
2023-02-24T08:32:37.558Z,8.60
2023-02-24T08:37:47.302Z,9.20
2023-02-24T08:42:52.464Z,9.50
2023-02-24T08:48:00.757Z,9.20
2023-02-24T08:53:03.345Z,9.20
2023-02-24T08:58:11.319Z,9.00
2023-02-24T09:03:16.564Z,8.80
2023-02-24T09:08:24.253Z,9.80
2023-02-24T09:13:33.207Z,10.90
2023-02-24T09:18:39.687Z,11.30
2023-02-24T09:23:46.207Z,11.50
2023-02-24T09:28:54.901Z,12.50
2023-02-24T09:34:01.831Z,13.60
2023-02-24T09:39:14.919Z,14.30
2023-02-24T09:44:19.430Z,14.40
2023-02-24T09:49:25.425Z,12.90
2023-02-24T09:54:32.089Z,12.40
2023-02-24T09:59:51.253Z,12.00
2023-02-24T10:05:07.742Z,11.60
2023-02-24T10:10:23.510Z,11.10
2023-02-24T10:15:59.528Z,11.10
2023-02-24T10:21:18.256Z,11.50
2023-02-24T10:26:31.915Z,12.40
2023-02-24T10:31:46.415Z,12.80
2023-02-24T10:36:50.641Z,13.40
2023-02-24T10:41:57.821Z,14.50
2023-02-24T10:47:12.591Z,15.60
2023-02-24T10:52:36.866Z,17.40
2023-02-24T10:57:58.614Z,19.30
2023-02-24T11:03:10.750Z,19.70
2023-02-24T11:08:36.750Z,20.80
2023-02-24T11:13:56.358Z,21.80
2023-02-24T11:19:00.393Z,22.80
2023-02-24T11:24:03.667Z,22.90
2023-02-24T11:29:26.718Z,23.30
2023-02-24T11:34:36.538Z,22.80
2023-02-24T11:39:50.896Z,22.80
2023-02-24T11:44:58.387Z,22.70
2023-02-24T11:50:15.351Z,21.10
2023-02-24T11:55:27.980Z,19.60
2023-02-24T12:00:34.779Z,16.80
2023-02-24T12:05:42.396Z,15.00
2023-02-24T12:10:50.678Z,14.20
2023-02-24T12:15:58.162Z,13.90
2023-02-24T12:21:07.324Z,14.50
2023-02-24T12:26:20.523Z,15.80
2023-02-24T12:31:33.405Z,16.30
2023-02-24T12:36:52.593Z,15.80
2023-02-24T12:42:07.646Z,15.00
2023-02-24T12:47:14.121Z,14.80
2023-02-24T12:52:26.877Z,14.20
2023-02-24T12:57:33.636Z,14.00
2023-02-24T13:02:48.920Z,14.00
2023-02-24T13:08:12.552Z,13.80
2023-02-24T13:13:24.953Z,13.50
2023-02-24T13:18:29.034Z,13.10
2023-02-24T13:23:33.179Z,12.60
2023-02-24T13:28:38.680Z,12.40
2023-02-24T13:33:43.205Z,12.40
2023-02-24T13:38:48.697Z,12.40
2023-02-24T13:43:58.223Z,12.30
2023-02-24T13:49:24.340Z,12.10
2023-02-24T13:55:02.071Z,12.10
2023-02-24T14:00:11.693Z,12.30
2023-02-24T14:05:25.172Z,12.20
2023-02-24T14:10:31.812Z,12.20
2023-02-24T14:15:34.900Z,12.30
2023-02-24T14:20:39.916Z,12.50
2023-02-24T14:25:43.997Z,12.80
2023-02-24T14:30:53.463Z,13.30
2023-02-24T14:35:55.730Z,13.50
2023-02-24T14:41:08.984Z,13.20
2023-02-24T14:46:10.916Z,13.30
2023-02-24T14:51:17.864Z,13.00
2023-02-24T14:56:25.274Z,12.80
2023-02-24T15:01:35.194Z,12.70
2023-02-24T15:06:42.390Z,12.80
2023-02-24T15:11:46.718Z,12.80
2023-02-24T15:16:51.119Z,12.70
2023-02-24T15:21:53.205Z,12.40
2023-02-24T15:26:59.274Z,12.30
2023-02-24T15:32:07.705Z,12.10
2023-02-24T15:37:17.480Z,12.10
2023-02-24T15:42:28.757Z,12.00
2023-02-24T15:47:34.758Z,11.70
2023-02-24T15:52:38.343Z,11.50
2023-02-24T15:57:42.386Z,11.40
2023-02-24T16:02:45.245Z,11.30
2023-02-24T16:07:49.491Z,11.30
2023-02-24T16:12:55.912Z,11.20
2023-02-24T16:18:00.256Z,11.10
2023-02-24T16:23:06.016Z,11.00
2023-02-24T16:28:14.850Z,10.90
2023-02-24T16:33:19.231Z,10.80
2023-02-24T16:38:27.100Z,10.70
2023-02-24T16:43:33.864Z,10.60
2023-02-24T16:48:40.306Z,10.50
2023-02-24T16:53:43.142Z,10.50
2023-02-24T16:58:47.196Z,10.40
2023-02-24T17:03:52.525Z,10.40
2023-02-24T17:08:54.841Z,10.40
2023-02-24T17:13:59.897Z,10.50
2023-02-24T17:19:02.536Z,10.50
2023-02-24T17:24:05.088Z,10.60
2023-02-24T17:29:09.504Z,10.50
2023-02-24T17:34:12.986Z,10.30
2023-02-24T17:39:15.946Z,10.20
2023-02-24T17:44:20.115Z,9.90
2023-02-24T17:49:22.939Z,9.80
2023-02-24T17:54:26.118Z,9.50
2023-02-24T17:59:31.536Z,9.40
2023-02-24T18:04:36.110Z,9.30
2023-02-24T18:09:39.662Z,9.10
2023-02-24T18:14:48.355Z,8.80
2023-02-24T18:19:55.977Z,8.50
2023-02-24T18:24:59.981Z,8.50
2023-02-24T18:30:05.178Z,8.40
2023-02-24T18:35:08.791Z,8.30
2023-02-24T18:40:16.570Z,8.20
2023-02-24T18:45:22.193Z,8.10
2023-02-24T18:50:26.226Z,8.10
2023-02-24T18:55:30.547Z,8.20
2023-02-24T19:00:39.782Z,8.30
2023-02-24T19:05:43.226Z,8.40
2023-02-24T19:10:47.447Z,8.40
2023-02-24T19:15:52.210Z,8.30
2023-02-24T19:20:55.967Z,8.20
2023-02-24T19:26:00.567Z,8.20
2023-02-24T19:31:05.212Z,8.20
2023-02-24T19:36:10.230Z,8.20
2023-02-24T19:41:15.606Z,8.10
2023-02-24T19:46:22.427Z,8.10
2023-02-24T19:51:28.162Z,8.10
2023-02-24T19:56:35.994Z,8.10
2023-02-24T20:01:43.853Z,8.10
2023-02-24T20:06:48.787Z,8.00
2023-02-24T20:11:54.992Z,8.00
2023-02-24T20:17:00.587Z,8.00
2023-02-24T20:22:05.170Z,8.00
2023-02-24T20:27:14.097Z,8.00
2023-02-24T20:32:20.648Z,8.00
2023-02-24T20:37:24.526Z,8.00
2023-02-24T20:42:28.840Z,7.90
2023-02-24T20:47:33.840Z,8.00
2023-02-24T20:52:38.307Z,8.20
2023-02-24T20:57:42.336Z,8.30
2023-02-24T21:02:47.599Z,8.10
2023-02-24T21:07:51.822Z,8.20
2023-02-24T21:12:55.095Z,8.10
2023-02-24T21:17:59.411Z,8.00
2023-02-24T21:23:02.021Z,7.90
2023-02-24T21:28:05.012Z,7.80
2023-02-24T21:33:09.582Z,7.70
2023-02-24T21:38:12.647Z,7.70
2023-02-24T21:43:15.082Z,7.90
2023-02-24T21:48:19.545Z,7.80
2023-02-24T21:53:23.944Z,8.00
2023-02-24T21:58:26.756Z,8.00
2023-02-24T22:03:31.319Z,8.10
2023-02-24T22:08:33.805Z,7.90
2023-02-24T22:13:36.416Z,7.80
2023-02-24T22:18:40.395Z,7.90
2023-02-24T22:23:42.944Z,7.90
2023-02-24T22:28:48.022Z,8.00
2023-02-24T22:33:52.148Z,8.20
2023-02-24T22:38:55.595Z,7.90
2023-02-24T22:43:58.017Z,7.50
2023-02-24T22:49:02.656Z,7.30
2023-02-24T22:54:05.836Z,7.30
2023-02-24T22:59:08.219Z,7.20
2023-02-24T23:04:16.095Z,7.00
2023-02-24T23:09:20.951Z,7.10
2023-02-24T23:14:22.949Z,7.10
2023-02-24T23:19:26.422Z,7.10
2023-02-24T23:24:28.524Z,7.20
2023-02-24T23:29:31.809Z,7.20
2023-02-24T23:34:35.296Z,7.20
2023-02-24T23:39:37.292Z,7.30
2023-02-24T23:44:39.852Z,7.30
2023-02-24T23:49:48.556Z,7.20
2023-02-24T23:54:52.789Z,7.10
2023-02-24T23:59:55.189Z,7.20
